sensor_id;sensor_type;location;lat;lon;timestamp;P1;durP1;ratioP1;P2;durP2;ratioP2
55112;SDS011;41006;50.920;3.456;2023-06-14T00:00:02;12.00;;;7.35;;
55112;SDS011;41006;50.920;3.456;2023-06-14T00:00:36;15.32;;;7.05;;
55112;SDS011;41006;50.920;3.456;2023-06-14T00:01:11;13.27;;;7.55;;
55112;SDS011;41006;50.920;3.456;2023-06-14T00:01:43;11.65;;;6.82;;
55112;SDS011;41006;50.920;3.456;2023-06-14T00:02:17;9.25;;;6.63;;
55112;SDS011;41006;50.920;3.456;2023-06-14T00:02:47;10.18;;;7.35;;
55112;SDS011;41006;50.920;3.456;2023-06-14T00:03:18;7.20;;;6.22;;
55112;SDS011;41006;50.920;3.456;2023-06-14T00:03:52;10.18;;;6.75;;
55112;SDS011;41006;50.920;3.456;2023-06-14T00:04:25;8.23;;;7.10;;
55112;SDS011;41006;50.920;3.456;2023-06-14T00:04:59;9.00;;;6.72;;
55112;SDS011;41006;50.920;3.456;2023-06-14T00:05:32;8.50;;;7.13;;
55112;SDS011;41006;50.920;3.456;2023-06-14T00:06:08;9.57;;;7.00;;
55112;SDS011;41006;50.920;3.456;2023-06-14T00:06:41;10.27;;;7.43;;
55112;SDS011;41006;50.920;3.456;2023-06-14T00:07:11;11.60;;;7.25;;
55112;SDS011;41006;50.920;3.456;2023-06-14T00:07:43;8.80;;;6.97;;
55112;SDS011;41006;50.920;3.456;2023-06-14T00:08:18;9.88;;;7.35;;
55112;SDS011;41006;50.920;3.456;2023-06-14T00:08:49;10.05;;;7.45;;
55112;SDS011;41006;50.920;3.456;2023-06-14T00:09:19;10.13;;;7.65;;
55112;SDS011;41006;50.920;3.456;2023-06-14T00:09:50;11.07;;;7.53;;
55112;SDS011;41006;50.920;3.456;2023-06-14T00:10:22;14.13;;;7.65;;
55112;SDS011;41006;50.920;3.456;2023-06-14T00:10:55;13.23;;;7.95;;
55112;SDS011;41006;50.920;3.456;2023-06-14T00:11:28;11.38;;;7.47;;
55112;SDS011;41006;50.920;3.456;2023-06-14T00:12:00;11.13;;;7.00;;
55112;SDS011;41006;50.920;3.456;2023-06-14T00:12:31;10.10;;;7.25;;
55112;SDS011;41006;50.920;3.456;2023-06-14T00:13:03;9.07;;;6.53;;
55112;SDS011;41006;50.920;3.456;2023-06-14T00:13:34;8.48;;;6.70;;
55112;SDS011;41006;50.920;3.456;2023-06-14T00:14:08;8.90;;;7.20;;
55112;SDS011;41006;50.920;3.456;2023-06-14T00:14:41;18.63;;;7.55;;
55112;SDS011;41006;50.920;3.456;2023-06-14T00:15:11;10.73;;;7.32;;
55112;SDS011;41006;50.920;3.456;2023-06-14T00:15:41;10.82;;;6.65;;
55112;SDS011;41006;50.920;3.456;2023-06-14T00:16:12;11.73;;;6.55;;
55112;SDS011;41006;50.920;3.456;2023-06-14T00:16:45;11.88;;;7.07;;
55112;SDS011;41006;50.920;3.456;2023-06-14T00:17:18;10.05;;;7.03;;
55112;SDS011;41006;50.920;3.456;2023-06-14T00:17:51;9.68;;;7.38;;
55112;SDS011;41006;50.920;3.456;2023-06-14T00:18:21;9.73;;;7.18;;
55112;SDS011;41006;50.920;3.456;2023-06-14T00:18:54;8.43;;;7.63;;
55112;SDS011;41006;50.920;3.456;2023-06-14T00:19:26;10.05;;;7.50;;
55112;SDS011;41006;50.920;3.456;2023-06-14T00:19:59;11.23;;;7.20;;
55112;SDS011;41006;50.920;3.456;2023-06-14T00:20:32;9.20;;;7.40;;
55112;SDS011;41006;50.920;3.456;2023-06-14T00:21:06;8.75;;;7.25;;
55112;SDS011;41006;50.920;3.456;2023-06-14T00:21:38;13.45;;;7.68;;
55112;SDS011;41006;50.920;3.456;2023-06-14T00:22:11;11.68;;;7.55;;
55112;SDS011;41006;50.920;3.456;2023-06-14T00:22:42;7.78;;;6.97;;
55112;SDS011;41006;50.920;3.456;2023-06-14T00:23:12;9.27;;;7.40;;
55112;SDS011;41006;50.920;3.456;2023-06-14T00:23:45;14.70;;;7.63;;
55112;SDS011;41006;50.920;3.456;2023-06-14T00:24:18;8.07;;;7.28;;
55112;SDS011;41006;50.920;3.456;2023-06-14T00:24:51;9.68;;;7.38;;
55112;SDS011;41006;50.920;3.456;2023-06-14T00:25:24;8.23;;;7.22;;
55112;SDS011;41006;50.920;3.456;2023-06-14T00:26:03;11.77;;;7.60;;
55112;SDS011;41006;50.920;3.456;2023-06-14T00:26:35;14.40;;;8.48;;
55112;SDS011;41006;50.920;3.456;2023-06-14T00:27:08;8.65;;;7.38;;
55112;SDS011;41006;50.920;3.456;2023-06-14T00:27:41;9.30;;;7.22;;
55112;SDS011;41006;50.920;3.456;2023-06-14T00:28:13;9.20;;;6.95;;
55112;SDS011;41006;50.920;3.456;2023-06-14T00:28:44;10.48;;;8.45;;
55112;SDS011;41006;50.920;3.456;2023-06-14T00:29:14;16.52;;;8.25;;
55112;SDS011;41006;50.920;3.456;2023-06-14T00:29:47;11.45;;;7.95;;
55112;SDS011;41006;50.920;3.456;2023-06-14T00:30:20;11.35;;;7.97;;
55112;SDS011;41006;50.920;3.456;2023-06-14T00:30:50;10.00;;;7.90;;
55112;SDS011;41006;50.920;3.456;2023-06-14T00:31:23;10.57;;;7.22;;
55112;SDS011;41006;50.920;3.456;2023-06-14T00:31:56;12.75;;;7.72;;
55112;SDS011;41006;50.920;3.456;2023-06-14T00:32:26;9.07;;;7.10;;
55112;SDS011;41006;50.920;3.456;2023-06-14T00:33:01;13.93;;;7.88;;
55112;SDS011;41006;50.920;3.456;2023-06-14T00:33:32;8.70;;;7.50;;
55112;SDS011;41006;50.920;3.456;2023-06-14T00:34:04;11.13;;;8.05;;
55112;SDS011;41006;50.920;3.456;2023-06-14T00:34:40;10.93;;;7.80;;
55112;SDS011;41006;50.920;3.456;2023-06-14T00:35:10;8.27;;;7.38;;
55112;SDS011;41006;50.920;3.456;2023-06-14T00:35:41;8.90;;;7.75;;
55112;SDS011;41006;50.920;3.456;2023-06-14T00:36:12;14.00;;;8.30;;
55112;SDS011;41006;50.920;3.456;2023-06-14T00:36:42;10.32;;;7.65;;
55112;SDS011;41006;50.920;3.456;2023-06-14T00:37:15;9.52;;;8.57;;
55112;SDS011;41006;50.920;3.456;2023-06-14T00:37:47;11.95;;;7.68;;
55112;SDS011;41006;50.920;3.456;2023-06-14T00:38:18;8.70;;;7.45;;
55112;SDS011;41006;50.920;3.456;2023-06-14T00:38:48;11.18;;;7.82;;
55112;SDS011;41006;50.920;3.456;2023-06-14T00:39:21;10.82;;;7.78;;
55112;SDS011;41006;50.920;3.456;2023-06-14T00:39:53;10.30;;;8.02;;
55112;SDS011;41006;50.920;3.456;2023-06-14T00:40:26;11.45;;;7.88;;
55112;SDS011;41006;50.920;3.456;2023-06-14T00:41:01;10.40;;;7.97;;
55112;SDS011;41006;50.920;3.456;2023-06-14T00:41:36;11.30;;;7.88;;
55112;SDS011;41006;50.920;3.456;2023-06-14T00:42:07;8.43;;;6.97;;
55112;SDS011;41006;50.920;3.456;2023-06-14T00:42:37;10.90;;;7.95;;
55112;SDS011;41006;50.920;3.456;2023-06-14T00:43:12;11.70;;;8.13;;
55112;SDS011;41006;50.920;3.456;2023-06-14T00:43:42;10.05;;;8.40;;
55112;SDS011;41006;50.920;3.456;2023-06-14T00:44:20;11.40;;;7.72;;
55112;SDS011;41006;50.920;3.456;2023-06-14T00:44:54;15.80;;;8.85;;
55112;SDS011;41006;50.920;3.456;2023-06-14T00:45:27;12.27;;;8.05;;
55112;SDS011;41006;50.920;3.456;2023-06-14T00:46:01;11.35;;;7.57;;
55112;SDS011;41006;50.920;3.456;2023-06-14T00:46:32;8.30;;;7.43;;
55112;SDS011;41006;50.920;3.456;2023-06-14T00:47:02;11.65;;;8.15;;
55112;SDS011;41006;50.920;3.456;2023-06-14T00:47:33;10.10;;;7.22;;
55112;SDS011;41006;50.920;3.456;2023-06-14T00:48:05;11.60;;;7.00;;
55112;SDS011;41006;50.920;3.456;2023-06-14T00:48:39;7.85;;;7.05;;
55112;SDS011;41006;50.920;3.456;2023-06-14T00:49:13;11.27;;;7.22;;
55112;SDS011;41006;50.920;3.456;2023-06-14T00:49:45;11.40;;;7.18;;
55112;SDS011;41006;50.920;3.456;2023-06-14T00:50:17;8.98;;;8.07;;
55112;SDS011;41006;50.920;3.456;2023-06-14T00:50:50;12.60;;;7.78;;
55112;SDS011;41006;50.920;3.456;2023-06-14T00:51:24;9.15;;;6.85;;
55112;SDS011;41006;50.920;3.456;2023-06-14T00:51:56;10.35;;;7.63;;
55112;SDS011;41006;50.920;3.456;2023-06-14T00:52:26;12.13;;;7.70;;
55112;SDS011;41006;50.920;3.456;2023-06-14T00:52:59;12.57;;;7.88;;
55112;SDS011;41006;50.920;3.456;2023-06-14T00:53:33;13.93;;;7.70;;
55112;SDS011;41006;50.920;3.456;2023-06-14T00:54:06;10.00;;;7.15;;
55112;SDS011;41006;50.920;3.456;2023-06-14T00:54:36;11.35;;;7.93;;
55112;SDS011;41006;50.920;3.456;2023-06-14T00:55:09;8.07;;;6.70;;
55112;SDS011;41006;50.920;3.456;2023-06-14T00:55:45;11.15;;;7.68;;
55112;SDS011;41006;50.920;3.456;2023-06-14T00:56:18;10.48;;;7.88;;
55112;SDS011;41006;50.920;3.456;2023-06-14T00:56:53;10.18;;;8.02;;
55112;SDS011;41006;50.920;3.456;2023-06-14T00:57:23;13.15;;;7.68;;
55112;SDS011;41006;50.920;3.456;2023-06-14T00:57:55;12.15;;;7.95;;
55112;SDS011;41006;50.920;3.456;2023-06-14T00:58:28;10.93;;;7.32;;
55112;SDS011;41006;50.920;3.456;2023-06-14T00:59:00;11.65;;;8.18;;
55112;SDS011;41006;50.920;3.456;2023-06-14T00:59:33;9.77;;;7.53;;
55112;SDS011;41006;50.920;3.456;2023-06-14T01:00:08;9.32;;;8.35;;
55112;SDS011;41006;50.920;3.456;2023-06-14T01:00:42;10.23;;;7.28;;
55112;SDS011;41006;50.920;3.456;2023-06-14T01:01:12;9.10;;;7.70;;
55112;SDS011;41006;50.920;3.456;2023-06-14T01:01:45;8.77;;;7.57;;
55112;SDS011;41006;50.920;3.456;2023-06-14T01:02:18;10.57;;;8.07;;
55112;SDS011;41006;50.920;3.456;2023-06-14T01:02:51;8.40;;;7.53;;
55112;SDS011;41006;50.920;3.456;2023-06-14T01:03:27;9.70;;;8.10;;
55112;SDS011;41006;50.920;3.456;2023-06-14T01:03:58;10.93;;;7.93;;
55112;SDS011;41006;50.920;3.456;2023-06-14T01:04:37;15.27;;;8.88;;
55112;SDS011;41006;50.920;3.456;2023-06-14T01:05:16;12.85;;;7.85;;
55112;SDS011;41006;50.920;3.456;2023-06-14T01:05:53;12.07;;;7.88;;
55112;SDS011;41006;50.920;3.456;2023-06-14T01:06:35;16.50;;;8.52;;
55112;SDS011;41006;50.920;3.456;2023-06-14T01:08:50;8.88;;;7.97;;
55112;SDS011;41006;50.920;3.456;2023-06-14T01:09:27;12.15;;;7.93;;
55112;SDS011;41006;50.920;3.456;2023-06-14T01:10:12;11.57;;;8.18;;
55112;SDS011;41006;50.920;3.456;2023-06-14T01:10:51;11.43;;;8.30;;
55112;SDS011;41006;50.920;3.456;2023-06-14T01:12:11;9.15;;;7.55;;
55112;SDS011;41006;50.920;3.456;2023-06-14T01:13:32;10.30;;;8.02;;
55112;SDS011;41006;50.920;3.456;2023-06-14T01:14:07;12.35;;;8.05;;
55112;SDS011;41006;50.920;3.456;2023-06-14T01:14:43;10.52;;;8.90;;
55112;SDS011;41006;50.920;3.456;2023-06-14T01:15:16;10.32;;;8.23;;
55112;SDS011;41006;50.920;3.456;2023-06-14T01:15:47;12.18;;;7.95;;
55112;SDS011;41006;50.920;3.456;2023-06-14T01:16:19;13.25;;;9.40;;
55112;SDS011;41006;50.920;3.456;2023-06-14T01:16:55;12.73;;;8.65;;
55112;SDS011;41006;50.920;3.456;2023-06-14T01:17:27;14.40;;;8.38;;
55112;SDS011;41006;50.920;3.456;2023-06-14T01:18:03;11.00;;;8.80;;
55112;SDS011;41006;50.920;3.456;2023-06-14T01:18:37;13.30;;;8.70;;
55112;SDS011;41006;50.920;3.456;2023-06-14T01:19:08;9.20;;;8.27;;
55112;SDS011;41006;50.920;3.456;2023-06-14T01:19:44;9.82;;;7.75;;
55112;SDS011;41006;50.920;3.456;2023-06-14T01:20:19;13.23;;;8.18;;
55112;SDS011;41006;50.920;3.456;2023-06-14T01:20:55;11.52;;;8.40;;
55112;SDS011;41006;50.920;3.456;2023-06-14T01:21:28;13.93;;;8.23;;
55112;SDS011;41006;50.920;3.456;2023-06-14T01:22:03;9.88;;;8.30;;
55112;SDS011;41006;50.920;3.456;2023-06-14T01:22:37;12.18;;;8.23;;
55112;SDS011;41006;50.920;3.456;2023-06-14T01:23:13;11.48;;;8.20;;
55112;SDS011;41006;50.920;3.456;2023-06-14T01:23:43;11.98;;;8.57;;
55112;SDS011;41006;50.920;3.456;2023-06-14T01:24:14;11.07;;;8.13;;
55112;SDS011;41006;50.920;3.456;2023-06-14T01:24:46;15.65;;;8.80;;
55112;SDS011;41006;50.920;3.456;2023-06-14T01:25:17;12.07;;;8.20;;
55112;SDS011;41006;50.920;3.456;2023-06-14T01:25:53;10.00;;;8.32;;
55112;SDS011;41006;50.920;3.456;2023-06-14T01:26:23;9.80;;;8.68;;
55112;SDS011;41006;50.920;3.456;2023-06-14T01:26:53;15.93;;;7.97;;
55112;SDS011;41006;50.920;3.456;2023-06-14T01:27:26;14.10;;;9.45;;
55112;SDS011;41006;50.920;3.456;2023-06-14T01:27:59;20.48;;;8.98;;
55112;SDS011;41006;50.920;3.456;2023-06-14T01:28:41;16.73;;;8.93;;
55112;SDS011;41006;50.920;3.456;2023-06-14T01:29:12;15.82;;;9.45;;
55112;SDS011;41006;50.920;3.456;2023-06-14T01:29:47;11.65;;;8.85;;
55112;SDS011;41006;50.920;3.456;2023-06-14T01:30:23;9.65;;;8.63;;
55112;SDS011;41006;50.920;3.456;2023-06-14T01:30:55;15.82;;;8.75;;
55112;SDS011;41006;50.920;3.456;2023-06-14T01:31:25;11.13;;;8.90;;
55112;SDS011;41006;50.920;3.456;2023-06-14T01:31:57;13.15;;;9.10;;
55112;SDS011;41006;50.920;3.456;2023-06-14T01:32:27;14.75;;;8.82;;
55112;SDS011;41006;50.920;3.456;2023-06-14T01:33:02;13.98;;;9.00;;
55112;SDS011;41006;50.920;3.456;2023-06-14T01:33:33;13.13;;;8.82;;
55112;SDS011;41006;50.920;3.456;2023-06-14T01:34:05;13.55;;;9.73;;
55112;SDS011;41006;50.920;3.456;2023-06-14T01:34:38;11.75;;;9.45;;
55112;SDS011;41006;50.920;3.456;2023-06-14T01:35:11;12.95;;;9.07;;
55112;SDS011;41006;50.920;3.456;2023-06-14T01:35:46;12.95;;;8.88;;
55112;SDS011;41006;50.920;3.456;2023-06-14T01:36:20;17.23;;;9.13;;
55112;SDS011;41006;50.920;3.456;2023-06-14T01:36:57;12.05;;;9.90;;
55112;SDS011;41006;50.920;3.456;2023-06-14T01:37:29;10.52;;;8.90;;
55112;SDS011;41006;50.920;3.456;2023-06-14T01:38:01;11.80;;;9.00;;
55112;SDS011;41006;50.920;3.456;2023-06-14T01:38:33;13.57;;;10.27;;
55112;SDS011;41006;50.920;3.456;2023-06-14T01:39:06;14.10;;;11.02;;
55112;SDS011;41006;50.920;3.456;2023-06-14T01:39:40;15.60;;;9.40;;
55112;SDS011;41006;50.920;3.456;2023-06-14T01:40:19;11.70;;;9.23;;
55112;SDS011;41006;50.920;3.456;2023-06-14T01:40:52;14.15;;;9.48;;
55112;SDS011;41006;50.920;3.456;2023-06-14T01:41:26;11.82;;;8.57;;
55112;SDS011;41006;50.920;3.456;2023-06-14T01:41:58;11.20;;;8.90;;
55112;SDS011;41006;50.920;3.456;2023-06-14T01:42:30;12.20;;;9.25;;
55112;SDS011;41006;50.920;3.456;2023-06-14T01:43:06;14.68;;;9.13;;
55112;SDS011;41006;50.920;3.456;2023-06-14T01:43:39;14.48;;;8.80;;
55112;SDS011;41006;50.920;3.456;2023-06-14T01:44:12;14.93;;;10.05;;
55112;SDS011;41006;50.920;3.456;2023-06-14T01:44:43;11.93;;;9.38;;
55112;SDS011;41006;50.920;3.456;2023-06-14T01:45:15;12.70;;;9.27;;
55112;SDS011;41006;50.920;3.456;2023-06-14T01:45:48;13.25;;;9.82;;
55112;SDS011;41006;50.920;3.456;2023-06-14T01:46:24;18.17;;;9.50;;
55112;SDS011;41006;50.920;3.456;2023-06-14T01:46:57;11.20;;;9.52;;
55112;SDS011;41006;50.920;3.456;2023-06-14T01:47:33;13.07;;;8.90;;
55112;SDS011;41006;50.920;3.456;2023-06-14T01:48:05;15.48;;;9.07;;
55112;SDS011;41006;50.920;3.456;2023-06-14T01:48:40;13.82;;;9.85;;
55112;SDS011;41006;50.920;3.456;2023-06-14T01:49:13;10.00;;;8.77;;
55112;SDS011;41006;50.920;3.456;2023-06-14T01:49:46;12.75;;;9.18;;
55112;SDS011;41006;50.920;3.456;2023-06-14T01:50:19;10.95;;;9.65;;
55112;SDS011;41006;50.920;3.456;2023-06-14T01:50:52;12.25;;;8.73;;
55112;SDS011;41006;50.920;3.456;2023-06-14T01:51:28;14.43;;;9.40;;
55112;SDS011;41006;50.920;3.456;2023-06-14T01:51:58;13.88;;;9.80;;
55112;SDS011;41006;50.920;3.456;2023-06-14T01:52:31;11.38;;;8.73;;
55112;SDS011;41006;50.920;3.456;2023-06-14T01:53:06;16.00;;;9.85;;
55112;SDS011;41006;50.920;3.456;2023-06-14T01:53:38;13.35;;;9.25;;
55112;SDS011;41006;50.920;3.456;2023-06-14T01:54:08;12.23;;;8.68;;
55112;SDS011;41006;50.920;3.456;2023-06-14T01:54:38;10.95;;;9.00;;
55112;SDS011;41006;50.920;3.456;2023-06-14T01:55:14;10.40;;;8.07;;
55112;SDS011;41006;50.920;3.456;2023-06-14T01:55:47;13.43;;;9.18;;
55112;SDS011;41006;50.920;3.456;2023-06-14T01:56:20;11.80;;;8.30;;
55112;SDS011;41006;50.920;3.456;2023-06-14T01:56:53;13.23;;;9.15;;
55112;SDS011;41006;50.920;3.456;2023-06-14T01:57:24;12.77;;;9.18;;
55112;SDS011;41006;50.920;3.456;2023-06-14T01:57:56;11.13;;;9.10;;
55112;SDS011;41006;50.920;3.456;2023-06-14T01:58:30;11.98;;;9.13;;
55112;SDS011;41006;50.920;3.456;2023-06-14T01:59:03;13.52;;;9.35;;
55112;SDS011;41006;50.920;3.456;2023-06-14T01:59:36;13.52;;;9.43;;
55112;SDS011;41006;50.920;3.456;2023-06-14T02:00:09;10.48;;;8.20;;
55112;SDS011;41006;50.920;3.456;2023-06-14T02:00:42;12.70;;;9.95;;
55112;SDS011;41006;50.920;3.456;2023-06-14T02:01:17;12.57;;;9.18;;
55112;SDS011;41006;50.920;3.456;2023-06-14T02:01:51;12.68;;;9.63;;
55112;SDS011;41006;50.920;3.456;2023-06-14T02:02:21;17.20;;;9.57;;
55112;SDS011;41006;50.920;3.456;2023-06-14T02:02:51;11.00;;;9.75;;
55112;SDS011;41006;50.920;3.456;2023-06-14T02:03:22;11.77;;;9.30;;
55112;SDS011;41006;50.920;3.456;2023-06-14T02:03:55;11.40;;;9.10;;
55112;SDS011;41006;50.920;3.456;2023-06-14T02:04:27;13.45;;;9.52;;
55112;SDS011;41006;50.920;3.456;2023-06-14T02:04:58;11.77;;;9.35;;
55112;SDS011;41006;50.920;3.456;2023-06-14T02:05:30;12.43;;;8.90;;
55112;SDS011;41006;50.920;3.456;2023-06-14T02:06:01;13.98;;;8.57;;
55112;SDS011;41006;50.920;3.456;2023-06-14T02:06:31;13.52;;;8.45;;
55112;SDS011;41006;50.920;3.456;2023-06-14T02:07:03;11.02;;;8.88;;
55112;SDS011;41006;50.920;3.456;2023-06-14T02:07:36;12.63;;;9.50;;
55112;SDS011;41006;50.920;3.456;2023-06-14T02:08:06;11.38;;;8.57;;
55112;SDS011;41006;50.920;3.456;2023-06-14T02:08:39;12.82;;;9.13;;
55112;SDS011;41006;50.920;3.456;2023-06-14T02:09:14;14.00;;;9.10;;
55112;SDS011;41006;50.920;3.456;2023-06-14T02:09:47;13.88;;;8.63;;
55112;SDS011;41006;50.920;3.456;2023-06-14T02:10:20;11.40;;;9.40;;
55112;SDS011;41006;50.920;3.456;2023-06-14T02:10:56;13.10;;;8.25;;
55112;SDS011;41006;50.920;3.456;2023-06-14T02:11:26;10.80;;;8.30;;
55112;SDS011;41006;50.920;3.456;2023-06-14T02:11:57;11.02;;;7.97;;
55112;SDS011;41006;50.920;3.456;2023-06-14T02:12:27;12.70;;;7.95;;
55112;SDS011;41006;50.920;3.456;2023-06-14T02:12:57;12.95;;;8.63;;
55112;SDS011;41006;50.920;3.456;2023-06-14T02:13:28;12.32;;;8.98;;
55112;SDS011;41006;50.920;3.456;2023-06-14T02:14:00;10.52;;;8.57;;
55112;SDS011;41006;50.920;3.456;2023-06-14T02:14:31;11.88;;;8.57;;
55112;SDS011;41006;50.920;3.456;2023-06-14T02:15:03;9.63;;;8.73;;
55112;SDS011;41006;50.920;3.456;2023-06-14T02:15:37;13.93;;;9.00;;
55112;SDS011;41006;50.920;3.456;2023-06-14T02:16:10;12.10;;;8.40;;
55112;SDS011;41006;50.920;3.456;2023-06-14T02:16:40;12.55;;;9.05;;
55112;SDS011;41006;50.920;3.456;2023-06-14T02:17:18;13.15;;;8.60;;
55112;SDS011;41006;50.920;3.456;2023-06-14T02:17:49;15.38;;;9.00;;
55112;SDS011;41006;50.920;3.456;2023-06-14T02:18:22;9.13;;;8.20;;
55112;SDS011;41006;50.920;3.456;2023-06-14T02:18:57;8.93;;;7.90;;
55112;SDS011;41006;50.920;3.456;2023-06-14T02:19:30;10.40;;;8.93;;
55112;SDS011;41006;50.920;3.456;2023-06-14T02:20:03;14.70;;;8.70;;
55112;SDS011;41006;50.920;3.456;2023-06-14T02:20:37;11.40;;;8.73;;
55112;SDS011;41006;50.920;3.456;2023-06-14T02:21:13;11.13;;;8.68;;
55112;SDS011;41006;50.920;3.456;2023-06-14T02:21:45;13.10;;;9.40;;
55112;SDS011;41006;50.920;3.456;2023-06-14T02:22:18;11.43;;;8.73;;
55112;SDS011;41006;50.920;3.456;2023-06-14T02:22:51;13.70;;;9.18;;
55112;SDS011;41006;50.920;3.456;2023-06-14T02:23:22;13.20;;;8.73;;
55112;SDS011;41006;50.920;3.456;2023-06-14T02:23:52;10.55;;;8.77;;
55112;SDS011;41006;50.920;3.456;2023-06-14T02:24:23;12.07;;;8.95;;
55112;SDS011;41006;50.920;3.456;2023-06-14T02:24:56;11.82;;;8.77;;
55112;SDS011;41006;50.920;3.456;2023-06-14T02:25:28;9.80;;;8.75;;
55112;SDS011;41006;50.920;3.456;2023-06-14T02:26:03;11.05;;;8.85;;
55112;SDS011;41006;50.920;3.456;2023-06-14T02:26:34;12.80;;;8.65;;
55112;SDS011;41006;50.920;3.456;2023-06-14T02:27:14;9.85;;;8.85;;
55112;SDS011;41006;50.920;3.456;2023-06-14T02:27:45;10.27;;;9.10;;
55112;SDS011;41006;50.920;3.456;2023-06-14T02:28:19;11.70;;;8.13;;
55112;SDS011;41006;50.920;3.456;2023-06-14T02:28:50;11.02;;;8.45;;
55112;SDS011;41006;50.920;3.456;2023-06-14T02:29:25;10.48;;;9.20;;
55112;SDS011;41006;50.920;3.456;2023-06-14T02:29:56;15.90;;;9.30;;
55112;SDS011;41006;50.920;3.456;2023-06-14T02:30:28;10.57;;;9.32;;
55112;SDS011;41006;50.920;3.456;2023-06-14T02:31:01;12.90;;;9.27;;
55112;SDS011;41006;50.920;3.456;2023-06-14T02:31:32;11.80;;;9.07;;
55112;SDS011;41006;50.920;3.456;2023-06-14T02:32:05;13.27;;;9.10;;
55112;SDS011;41006;50.920;3.456;2023-06-14T02:32:37;13.38;;;9.77;;
55112;SDS011;41006;50.920;3.456;2023-06-14T02:33:08;10.57;;;9.45;;
55112;SDS011;41006;50.920;3.456;2023-06-14T02:33:42;13.00;;;9.80;;
55112;SDS011;41006;50.920;3.456;2023-06-14T02:34:14;9.80;;;8.80;;
55112;SDS011;41006;50.920;3.456;2023-06-14T02:34:46;11.48;;;8.98;;
55112;SDS011;41006;50.920;3.456;2023-06-14T02:35:19;10.40;;;9.07;;
55112;SDS011;41006;50.920;3.456;2023-06-14T02:35:54;12.15;;;8.95;;
55112;SDS011;41006;50.920;3.456;2023-06-14T02:36:27;12.27;;;8.70;;
55112;SDS011;41006;50.920;3.456;2023-06-14T02:36:59;15.57;;;9.63;;
55112;SDS011;41006;50.920;3.456;2023-06-14T02:37:30;10.50;;;8.38;;
55112;SDS011;41006;50.920;3.456;2023-06-14T02:38:06;12.15;;;10.20;;
55112;SDS011;41006;50.920;3.456;2023-06-14T02:38:39;13.10;;;9.25;;
55112;SDS011;41006;50.920;3.456;2023-06-14T02:39:14;11.30;;;9.48;;
55112;SDS011;41006;50.920;3.456;2023-06-14T02:39:48;11.68;;;9.68;;
55112;SDS011;41006;50.920;3.456;2023-06-14T02:40:23;10.93;;;9.80;;
55112;SDS011;41006;50.920;3.456;2023-06-14T02:40:53;12.82;;;9.65;;
55112;SDS011;41006;50.920;3.456;2023-06-14T02:41:24;11.38;;;9.48;;
55112;SDS011;41006;50.920;3.456;2023-06-14T02:41:56;13.07;;;9.98;;
55112;SDS011;41006;50.920;3.456;2023-06-14T02:42:31;13.95;;;9.65;;
55112;SDS011;41006;50.920;3.456;2023-06-14T02:43:06;10.60;;;8.93;;
55112;SDS011;41006;50.920;3.456;2023-06-14T02:43:36;16.92;;;9.57;;
55112;SDS011;41006;50.920;3.456;2023-06-14T02:44:13;11.57;;;9.00;;
55112;SDS011;41006;50.920;3.456;2023-06-14T02:44:43;15.10;;;11.68;;
55112;SDS011;41006;50.920;3.456;2023-06-14T02:45:21;22.98;;;10.13;;
55112;SDS011;41006;50.920;3.456;2023-06-14T02:45:56;15.20;;;9.70;;
55112;SDS011;41006;50.920;3.456;2023-06-14T02:46:26;11.95;;;9.93;;
55112;SDS011;41006;50.920;3.456;2023-06-14T02:46:57;10.88;;;9.25;;
55112;SDS011;41006;50.920;3.456;2023-06-14T02:47:30;16.42;;;10.38;;
55112;SDS011;41006;50.920;3.456;2023-06-14T02:48:01;12.27;;;10.43;;
55112;SDS011;41006;50.920;3.456;2023-06-14T02:48:33;12.00;;;9.35;;
55112;SDS011;41006;50.920;3.456;2023-06-14T02:49:04;11.07;;;9.80;;
55112;SDS011;41006;50.920;3.456;2023-06-14T02:49:37;16.98;;;10.82;;
55112;SDS011;41006;50.920;3.456;2023-06-14T02:50:07;14.98;;;10.18;;
55112;SDS011;41006;50.920;3.456;2023-06-14T02:50:39;12.00;;;10.20;;
55112;SDS011;41006;50.920;3.456;2023-06-14T02:51:11;11.82;;;10.35;;
55112;SDS011;41006;50.920;3.456;2023-06-14T02:51:42;15.18;;;10.15;;
55112;SDS011;41006;50.920;3.456;2023-06-14T02:52:15;17.08;;;10.85;;
55112;SDS011;41006;50.920;3.456;2023-06-14T02:52:48;12.57;;;10.27;;
55112;SDS011;41006;50.920;3.456;2023-06-14T02:53:18;11.50;;;10.07;;
55112;SDS011;41006;50.920;3.456;2023-06-14T02:53:49;11.88;;;10.35;;
55112;SDS011;41006;50.920;3.456;2023-06-14T02:54:22;14.77;;;9.38;;
55112;SDS011;41006;50.920;3.456;2023-06-14T02:54:52;12.85;;;9.70;;
55112;SDS011;41006;50.920;3.456;2023-06-14T02:55:26;12.07;;;10.25;;
55112;SDS011;41006;50.920;3.456;2023-06-14T02:55:58;14.32;;;10.02;;
55112;SDS011;41006;50.920;3.456;2023-06-14T02:56:31;11.85;;;10.40;;
55112;SDS011;41006;50.920;3.456;2023-06-14T02:57:01;14.27;;;9.93;;
55112;SDS011;41006;50.920;3.456;2023-06-14T02:57:32;10.93;;;9.80;;
55112;SDS011;41006;50.920;3.456;2023-06-14T02:58:05;15.13;;;10.55;;
55112;SDS011;41006;50.920;3.456;2023-06-14T02:58:36;13.73;;;9.75;;
55112;SDS011;41006;50.920;3.456;2023-06-14T02:59:09;16.42;;;11.10;;
55112;SDS011;41006;50.920;3.456;2023-06-14T02:59:42;13.10;;;10.38;;
55112;SDS011;41006;50.920;3.456;2023-06-14T03:00:15;12.93;;;9.65;;
55112;SDS011;41006;50.920;3.456;2023-06-14T03:00:48;16.15;;;11.18;;
55112;SDS011;41006;50.920;3.456;2023-06-14T03:01:26;19.27;;;10.30;;
55112;SDS011;41006;50.920;3.456;2023-06-14T03:02:04;15.52;;;11.60;;
55112;SDS011;41006;50.920;3.456;2023-06-14T03:02:35;14.23;;;10.60;;
55112;SDS011;41006;50.920;3.456;2023-06-14T03:03:05;14.50;;;10.75;;
55112;SDS011;41006;50.920;3.456;2023-06-14T03:03:43;11.20;;;10.10;;
55112;SDS011;41006;50.920;3.456;2023-06-14T03:04:14;11.55;;;10.38;;
55112;SDS011;41006;50.920;3.456;2023-06-14T03:04:45;18.73;;;10.90;;
55112;SDS011;41006;50.920;3.456;2023-06-14T03:05:17;11.90;;;10.65;;
55112;SDS011;41006;50.920;3.456;2023-06-14T03:05:51;12.85;;;10.48;;
55112;SDS011;41006;50.920;3.456;2023-06-14T03:06:24;14.52;;;11.13;;
55112;SDS011;41006;50.920;3.456;2023-06-14T03:06:59;12.43;;;10.25;;
55112;SDS011;41006;50.920;3.456;2023-06-14T03:07:32;14.10;;;10.88;;
55112;SDS011;41006;50.920;3.456;2023-06-14T03:08:05;15.52;;;11.15;;
55112;SDS011;41006;50.920;3.456;2023-06-14T03:08:38;12.95;;;10.95;;
55112;SDS011;41006;50.920;3.456;2023-06-14T03:09:12;12.90;;;10.82;;
55112;SDS011;41006;50.920;3.456;2023-06-14T03:09:45;12.05;;;10.48;;
55112;SDS011;41006;50.920;3.456;2023-06-14T03:10:18;16.02;;;11.95;;
55112;SDS011;41006;50.920;3.456;2023-06-14T03:10:49;13.35;;;11.93;;
55112;SDS011;41006;50.920;3.456;2023-06-14T03:11:21;18.35;;;11.65;;
55112;SDS011;41006;50.920;3.456;2023-06-14T03:11:52;11.75;;;10.50;;
55112;SDS011;41006;50.920;3.456;2023-06-14T03:12:22;15.25;;;11.35;;
55112;SDS011;41006;50.920;3.456;2023-06-14T03:12:53;12.95;;;11.60;;
55112;SDS011;41006;50.920;3.456;2023-06-14T03:13:27;16.23;;;11.88;;
55112;SDS011;41006;50.920;3.456;2023-06-14T03:14:02;12.48;;;11.18;;
55112;SDS011;41006;50.920;3.456;2023-06-14T03:14:37;15.57;;;11.73;;
55112;SDS011;41006;50.920;3.456;2023-06-14T03:15:08;13.25;;;11.65;;
55112;SDS011;41006;50.920;3.456;2023-06-14T03:15:39;13.30;;;11.85;;
55112;SDS011;41006;50.920;3.456;2023-06-14T03:16:11;12.48;;;11.18;;
55112;SDS011;41006;50.920;3.456;2023-06-14T03:16:41;16.15;;;11.40;;
55112;SDS011;41006;50.920;3.456;2023-06-14T03:17:14;16.38;;;12.45;;
55112;SDS011;41006;50.920;3.456;2023-06-14T03:17:47;14.70;;;11.52;;